createdAt,value
2022-09-30T00:01:26.289Z,7.25
2022-09-30T00:03:57.500Z,7.68
2022-09-30T00:06:26.216Z,6.20
2022-09-30T00:08:53.795Z,7.10
2022-09-30T00:11:23.035Z,7.47
2022-09-30T00:13:50.971Z,7.07
2022-09-30T00:16:21.120Z,8.65
2022-09-30T00:18:47.767Z,7.50
2022-09-30T00:21:16.026Z,6.85
2022-09-30T00:23:44.075Z,7.53
2022-09-30T00:26:16.885Z,7.93
2022-09-30T00:28:43.969Z,7.43
2022-09-30T00:31:16.782Z,8.18
2022-09-30T00:33:44.340Z,7.13
2022-09-30T00:36:10.987Z,7.13
2022-09-30T00:38:37.398Z,7.95
2022-09-30T00:41:04.273Z,11.00
2022-09-30T00:43:46.593Z,6.65
2022-09-30T00:46:41.016Z,8.00
2022-09-30T00:49:20.708Z,6.93
2022-09-30T00:51:50.935Z,6.57
2022-09-30T00:54:31.689Z,6.50
2022-09-30T00:57:03.917Z,8.73
2022-09-30T00:59:41.604Z,10.05
2022-09-30T01:02:10.247Z,9.52
2022-09-30T01:04:37.987Z,9.48
2022-09-30T01:07:09.588Z,10.80
2022-09-30T01:09:38.304Z,9.23
2022-09-30T01:12:12.453Z,8.18
2022-09-30T01:14:40.580Z,9.60
2022-09-30T01:17:28.736Z,8.38
2022-09-30T01:20:43.457Z,8.15
2022-09-30T01:23:38.595Z,8.77
2022-09-30T01:26:17.170Z,9.05
2022-09-30T01:28:55.812Z,8.90
2022-09-30T01:31:34.322Z,10.45
2022-09-30T01:34:33.505Z,16.95
2022-09-30T01:37:09.124Z,11.00
2022-09-30T01:39:46.868Z,11.07
2022-09-30T01:43:05.882Z,11.77
2022-09-30T01:45:38.493Z,12.70
2022-09-30T01:48:46.257Z,11.15
2022-09-30T01:51:35.177Z,16.08
2022-09-30T01:54:14.634Z,10.00
2022-09-30T01:56:46.414Z,11.27
2022-09-30T01:59:22.044Z,11.68
2022-09-30T02:01:57.681Z,13.10
2022-09-30T02:04:30.147Z,11.88
2022-09-30T02:07:01.376Z,16.00
2022-09-30T02:09:35.233Z,11.05
2022-09-30T02:12:07.163Z,14.77
2022-09-30T02:14:42.058Z,12.95
2022-09-30T02:17:08.386Z,10.32
2022-09-30T02:19:45.449Z,10.43
2022-09-30T02:22:30.824Z,11.50
2022-09-30T02:25:00.770Z,10.23
2022-09-30T02:27:42.182Z,12.50
2022-09-30T02:30:11.004Z,11.05
2022-09-30T02:32:55.814Z,8.63
2022-09-30T02:35:29.003Z,12.23
2022-09-30T02:38:37.654Z,10.80
2022-09-30T02:41:32.293Z,9.60
2022-09-30T02:44:02.358Z,11.18
2022-09-30T02:46:53.408Z,11.73
2022-09-30T02:49:28.340Z,11.20
2022-09-30T02:52:05.999Z,12.85
2022-09-30T02:54:39.830Z,13.55
2022-09-30T02:57:33.944Z,12.75
2022-09-30T03:00:03.219Z,13.05
2022-09-30T03:02:30.391Z,12.13
2022-09-30T03:04:56.775Z,14.35
2022-09-30T03:07:23.184Z,13.68
2022-09-30T03:09:49.624Z,13.52
2022-09-30T03:12:35.496Z,17.38
2022-09-30T03:15:19.126Z,12.70
2022-09-30T03:18:17.994Z,16.48
2022-09-30T03:20:50.568Z,15.55
2022-09-30T03:23:47.049Z,15.88
2022-09-30T03:26:29.823Z,16.87
2022-09-30T03:29:17.437Z,16.98
2022-09-30T03:32:02.214Z,17.85
2022-09-30T03:35:09.214Z,16.38
2022-09-30T03:37:57.452Z,16.03
2022-09-30T03:40:31.543Z,15.27
2022-09-30T03:43:06.036Z,16.73
2022-09-30T03:45:47.510Z,16.77
2022-09-30T03:48:15.475Z,14.73
2022-09-30T03:50:42.892Z,16.75
2022-09-30T03:53:12.464Z,17.92
2022-09-30T03:55:52.162Z,19.70
2022-09-30T03:58:22.132Z,31.80
2022-09-30T04:00:52.768Z,31.98
2022-09-30T04:03:21.098Z,20.77
2022-09-30T04:05:49.036Z,22.42
2022-09-30T04:08:16.090Z,20.25
2022-09-30T04:10:44.001Z,21.50
2022-09-30T04:13:11.800Z,20.90
2022-09-30T04:15:38.852Z,20.67
2022-09-30T04:18:05.570Z,18.95
2022-09-30T04:20:32.744Z,21.15
2022-09-30T04:23:00.576Z,21.02
2022-09-30T04:25:28.367Z,20.48
2022-09-30T04:27:55.934Z,20.90
2022-09-30T04:30:25.604Z,20.15
2022-09-30T04:32:52.976Z,24.80
2022-09-30T04:35:21.618Z,20.30
2022-09-30T04:37:49.112Z,24.63
2022-09-30T04:40:16.974Z,20.05
2022-09-30T04:42:43.930Z,21.65
2022-09-30T04:45:12.187Z,19.98
2022-09-30T04:47:44.631Z,26.92
2022-09-30T04:50:12.143Z,23.10
2022-09-30T04:52:43.035Z,29.92
2022-09-30T04:55:10.184Z,23.48
2022-09-30T04:57:36.987Z,25.90
2022-09-30T05:00:05.412Z,26.35
2022-09-30T05:02:32.133Z,30.25
2022-09-30T05:04:58.533Z,23.40
2022-09-30T05:07:24.946Z,23.10
2022-09-30T05:09:53.202Z,26.42
2022-09-30T05:12:19.582Z,23.98
2022-09-30T05:14:45.974Z,25.45
2022-09-30T05:17:12.392Z,28.60
2022-09-30T05:19:38.797Z,25.90
2022-09-30T05:22:06.300Z,25.05
2022-09-30T05:24:32.745Z,27.58
2022-09-30T05:26:59.250Z,27.48
2022-09-30T05:29:25.643Z,26.40
2022-09-30T05:31:52.165Z,25.80
2022-09-30T05:34:20.948Z,26.50
2022-09-30T05:36:47.399Z,29.10
2022-09-30T05:39:14.076Z,25.02
2022-09-30T05:41:41.556Z,25.45
2022-09-30T05:44:09.189Z,26.52
2022-09-30T05:46:35.763Z,27.73
2022-09-30T05:49:02.156Z,24.65
2022-09-30T05:51:28.564Z,25.75
2022-09-30T05:53:54.956Z,28.83
2022-09-30T05:56:21.465Z,26.25
2022-09-30T05:58:50.793Z,34.65
2022-09-30T06:01:19.507Z,30.60
2022-09-30T06:03:46.768Z,29.77
2022-09-30T06:06:15.502Z,25.15
2022-09-30T06:08:44.467Z,21.73
2022-09-30T06:11:13.807Z,22.27
2022-09-30T06:13:41.959Z,24.13
2022-09-30T06:16:11.809Z,26.08
2022-09-30T06:18:41.160Z,21.45
2022-09-30T06:21:11.271Z,24.30
2022-09-30T06:23:37.987Z,21.80
2022-09-30T06:26:06.292Z,24.63
2022-09-30T06:28:35.699Z,23.33
2022-09-30T06:31:03.994Z,21.05
2022-09-30T06:33:31.897Z,19.73
2022-09-30T06:35:58.731Z,17.73
2022-09-30T06:38:27.315Z,19.20
2022-09-30T06:40:53.696Z,18.35
2022-09-30T06:43:20.833Z,14.48
2022-09-30T06:45:51.428Z,12.95
2022-09-30T06:48:28.954Z,11.73
2022-09-30T06:51:02.085Z,10.90
2022-09-30T06:53:29.308Z,9.70
2022-09-30T06:55:57.139Z,8.30
2022-09-30T06:58:26.924Z,9.48
2022-09-30T07:01:02.177Z,10.57
2022-09-30T07:03:32.748Z,9.57
2022-09-30T07:06:01.116Z,6.78
2022-09-30T07:08:31.635Z,7.88
2022-09-30T07:11:04.424Z,6.38
2022-09-30T07:13:32.984Z,7.03
2022-09-30T07:15:59.432Z,6.93
2022-09-30T07:18:28.025Z,7.30
2022-09-30T07:20:55.822Z,7.43
2022-09-30T07:23:26.665Z,7.25
2022-09-30T07:26:00.258Z,6.80
2022-09-30T07:28:32.001Z,7.80
2022-09-30T07:31:30.790Z,6.82
2022-09-30T07:33:52.648Z,16.10
2022-09-30T07:36:32.603Z,10.10
2022-09-30T07:39:00.272Z,7.55
2022-09-30T07:41:28.964Z,8.55
2022-09-30T07:43:58.648Z,6.43
2022-09-30T07:46:31.161Z,7.22
2022-09-30T07:49:02.175Z,7.20
2022-09-30T07:51:32.102Z,7.95
2022-09-30T07:54:02.125Z,5.93
2022-09-30T07:56:37.073Z,6.63
2022-09-30T07:59:15.977Z,6.05
2022-09-30T08:01:42.605Z,5.60
2022-09-30T08:04:11.195Z,6.85
2022-09-30T08:06:40.441Z,6.85
2022-09-30T08:09:08.446Z,7.18
2022-09-30T08:11:38.102Z,6.72
2022-09-30T08:14:05.576Z,6.28
2022-09-30T08:16:32.328Z,5.75
2022-09-30T08:19:01.249Z,4.72
2022-09-30T08:21:28.946Z,7.00
2022-09-30T08:23:55.476Z,5.68
2022-09-30T08:26:22.003Z,5.75
2022-09-30T08:28:48.583Z,7.80
2022-09-30T08:31:20.746Z,6.15
2022-09-30T08:33:47.408Z,6.97
2022-09-30T08:36:18.372Z,5.88
2022-09-30T08:38:45.047Z,5.75
2022-09-30T08:41:32.846Z,6.63
2022-09-30T08:44:32.177Z,4.60
2022-09-30T08:47:35.126Z,4.88
2022-09-30T08:50:22.828Z,5.82
2022-09-30T08:52:52.300Z,4.93
2022-09-30T08:55:25.747Z,7.05
2022-09-30T08:57:55.186Z,6.95
2022-09-30T09:00:22.603Z,7.00
2022-09-30T09:03:00.584Z,6.22
2022-09-30T09:05:49.952Z,8.23
2022-09-30T09:08:18.752Z,6.25
2022-09-30T09:10:50.257Z,5.30
2022-09-30T09:13:35.370Z,6.88
2022-09-30T09:16:26.511Z,6.53
2022-09-30T09:18:59.313Z,4.45
2022-09-30T09:21:44.448Z,6.05
2022-09-30T09:24:18.594Z,5.28
2022-09-30T09:26:45.077Z,15.02
2022-09-30T09:29:14.576Z,11.60
2022-09-30T09:31:41.067Z,5.95
2022-09-30T09:34:11.021Z,7.13
2022-09-30T09:36:58.628Z,6.20
2022-09-30T09:39:40.681Z,9.23
2022-09-30T09:42:45.330Z,6.43
2022-09-30T09:45:37.743Z,4.38
2022-09-30T09:48:09.342Z,4.05
2022-09-30T09:50:44.602Z,5.15
2022-09-30T09:53:28.268Z,9.35
2022-09-30T09:55:59.987Z,4.88
2022-09-30T09:58:26.714Z,3.58
2022-09-30T10:00:53.105Z,3.83
2022-09-30T10:03:26.282Z,4.18
2022-09-30T10:06:10.723Z,3.40
2022-09-30T10:08:39.675Z,6.68
2022-09-30T10:11:21.282Z,4.50
2022-09-30T10:13:48.471Z,4.32
2022-09-30T10:16:35.915Z,3.75
2022-09-30T10:19:19.991Z,5.68
2022-09-30T10:21:46.420Z,4.53
2022-09-30T10:24:29.264Z,5.47
2022-09-30T10:26:55.983Z,4.50
2022-09-30T10:29:27.075Z,3.72
2022-09-30T10:31:58.909Z,5.50
2022-09-30T10:34:36.843Z,4.63
2022-09-30T10:37:11.047Z,4.18
2022-09-30T10:39:40.496Z,5.18
2022-09-30T10:42:12.830Z,4.57
2022-09-30T10:44:46.629Z,8.35
2022-09-30T10:47:22.297Z,6.18
2022-09-30T10:49:51.577Z,5.03
2022-09-30T10:52:25.119Z,5.03
2022-09-30T10:54:53.975Z,4.03
2022-09-30T10:57:24.266Z,5.60
2022-09-30T10:59:55.076Z,4.63
2022-09-30T11:02:33.551Z,10.23
2022-09-30T11:05:20.326Z,4.30
2022-09-30T11:08:10.403Z,3.42
2022-09-30T11:11:01.503Z,3.55
2022-09-30T11:14:04.214Z,5.43
2022-09-30T11:16:47.442Z,3.63
2022-09-30T11:19:37.050Z,3.92
2022-09-30T11:22:28.259Z,4.20
2022-09-30T11:24:57.184Z,3.60
2022-09-30T11:27:52.721Z,4.78
2022-09-30T11:30:39.966Z,5.50
2022-09-30T11:33:25.482Z,3.45
2022-09-30T11:36:11.301Z,5.75
2022-09-30T11:39:19.745Z,4.18
2022-09-30T11:42:01.154Z,5.80
2022-09-30T11:44:27.475Z,3.53
2022-09-30T11:47:18.886Z,3.67
2022-09-30T11:50:07.697Z,3.38
2022-09-30T11:52:46.431Z,3.50
2022-09-30T11:55:41.504Z,3.28
2022-09-30T11:58:39.202Z,3.58
2022-09-30T12:01:16.246Z,3.47
2022-09-30T12:03:48.621Z,3.60
2022-09-30T12:06:30.343Z,2.55
2022-09-30T12:09:19.764Z,3.28
2022-09-30T12:11:52.280Z,4.10
2022-09-30T12:14:28.574Z,2.75
2022-09-30T12:16:57.630Z,3.60
2022-09-30T12:19:34.261Z,3.22
2022-09-30T12:22:05.017Z,4.13
2022-09-30T12:24:39.927Z,2.70
2022-09-30T12:27:30.283Z,3.22
2022-09-30T12:30:17.790Z,2.00
2022-09-30T12:32:48.719Z,2.53
2022-09-30T12:35:46.456Z,2.65
2022-09-30T12:38:41.266Z,5.07
2022-09-30T12:41:26.688Z,4.15
2022-09-30T12:44:28.461Z,3.78
2022-09-30T12:47:14.183Z,2.58
2022-09-30T12:49:41.952Z,2.15
2022-09-30T12:52:18.124Z,2.67
2022-09-30T12:55:25.452Z,2.53
2022-09-30T12:57:53.199Z,1.90
2022-09-30T13:00:25.543Z,1.63
2022-09-30T13:02:59.350Z,5.47
2022-09-30T13:05:31.895Z,2.28
2022-09-30T13:08:07.164Z,2.63
2022-09-30T13:10:45.054Z,1.80
2022-09-30T13:13:13.923Z,1.90
2022-09-30T13:15:46.203Z,3.10
2022-09-30T13:18:32.812Z,2.17
2022-09-30T13:21:05.339Z,3.13
2022-09-30T13:23:51.442Z,2.15
2022-09-30T13:26:33.472Z,3.93
2022-09-30T13:29:00.182Z,2.20
2022-09-30T13:31:28.561Z,4.65
2022-09-30T13:34:02.110Z,2.78
2022-09-30T13:36:31.247Z,1.50
2022-09-30T13:39:17.891Z,1.92
2022-09-30T13:41:49.159Z,2.05
2022-09-30T13:44:21.399Z,2.42
2022-09-30T13:46:53.314Z,2.40
2022-09-30T13:49:25.572Z,2.63
2022-09-30T13:51:54.918Z,4.07
2022-09-30T13:54:29.852Z,2.90
2022-09-30T13:56:56.764Z,2.13
2022-09-30T13:59:37.277Z,2.03
2022-09-30T14:02:22.292Z,2.10
2022-09-30T14:05:15.485Z,1.92
2022-09-30T14:07:53.043Z,1.98
2022-09-30T14:10:42.042Z,2.00
2022-09-30T14:13:40.571Z,2.13
2022-09-30T14:16:36.671Z,1.58
2022-09-30T14:19:24.076Z,1.70
2022-09-30T14:21:57.471Z,1.98
2022-09-30T14:24:26.735Z,1.90
2022-09-30T14:27:41.376Z,3.78
2022-09-30T14:30:20.128Z,1.98
2022-09-30T14:32:54.851Z,3.22
2022-09-30T14:35:25.556Z,2.33
2022-09-30T14:37:59.121Z,3.40
2022-09-30T14:40:32.235Z,3.35
2022-09-30T14:43:14.583Z,4.15
2022-09-30T14:45:44.735Z,4.30
2022-09-30T14:48:19.876Z,4.40
2022-09-30T14:51:01.334Z,4.95
2022-09-30T14:53:36.732Z,6.03
2022-09-30T14:56:19.502Z,8.88
2022-09-30T14:58:47.067Z,5.47
2022-09-30T15:01:17.593Z,6.65
2022-09-30T15:03:49.014Z,6.82
2022-09-30T15:06:37.903Z,7.10
2022-09-30T15:09:14.905Z,8.95
2022-09-30T15:11:41.466Z,8.07
2022-09-30T15:14:17.680Z,9.32
2022-09-30T15:17:06.359Z,7.35
2022-09-30T15:19:35.131Z,7.03
2022-09-30T15:22:04.533Z,7.57
2022-09-30T15:24:32.604Z,7.03
2022-09-30T15:27:01.357Z,10.43
2022-09-30T15:29:28.215Z,6.80
2022-09-30T15:32:01.105Z,7.90
2022-09-30T15:34:28.742Z,8.65
2022-09-30T15:37:06.399Z,6.93
2022-09-30T15:39:55.942Z,8.90
2022-09-30T15:42:35.337Z,10.68
2022-09-30T15:45:04.463Z,10.43
2022-09-30T15:47:31.031Z,8.65
2022-09-30T15:49:57.525Z,7.72
2022-09-30T15:52:37.440Z,8.77
2022-09-30T15:55:43.653Z,7.82
2022-09-30T15:58:39.378Z,9.40
2022-09-30T16:01:14.275Z,9.35
2022-09-30T16:03:49.873Z,9.93
2022-09-30T16:06:25.146Z,9.03
2022-09-30T16:09:02.112Z,9.68
2022-09-30T16:11:36.506Z,10.82
2022-09-30T16:14:07.863Z,9.35
2022-09-30T16:16:36.930Z,8.38
2022-09-30T16:19:04.696Z,10.38
2022-09-30T16:21:51.903Z,9.00
2022-09-30T16:24:21.103Z,9.30
2022-09-30T16:26:49.275Z,8.02
2022-09-30T16:29:17.835Z,10.27
2022-09-30T16:31:46.748Z,11.50
2022-09-30T16:34:36.739Z,15.70
2022-09-30T16:37:10.833Z,10.68
2022-09-30T16:39:37.227Z,10.38
2022-09-30T16:42:04.426Z,9.18
2022-09-30T16:44:35.562Z,8.05
2022-09-30T16:47:02.643Z,9.27
2022-09-30T16:49:30.277Z,9.15
2022-09-30T16:51:56.744Z,9.75
2022-09-30T16:54:23.242Z,8.45
2022-09-30T16:56:49.691Z,10.32
2022-09-30T16:59:20.096Z,8.90
2022-09-30T17:01:46.558Z,10.30
2022-09-30T17:04:15.391Z,8.85
2022-09-30T17:06:44.651Z,9.82
2022-09-30T17:09:11.208Z,9.60
2022-09-30T17:11:38.753Z,11.00
2022-09-30T17:14:05.607Z,9.85
2022-09-30T17:16:34.100Z,14.02
2022-09-30T17:19:00.713Z,10.85
2022-09-30T17:21:27.641Z,11.57
2022-09-30T17:23:55.674Z,13.95
2022-09-30T17:26:22.618Z,12.43
2022-09-30T17:28:48.996Z,11.75
2022-09-30T17:31:16.469Z,12.80
2022-09-30T17:33:42.924Z,16.00
2022-09-30T17:36:12.220Z,15.07
2022-09-30T17:38:40.357Z,13.48
2022-09-30T17:41:26.325Z,17.48
2022-09-30T17:43:52.712Z,17.90
2022-09-30T17:46:23.213Z,14.77
2022-09-30T17:48:51.139Z,15.90
2022-09-30T17:51:17.600Z,14.90
2022-09-30T17:53:44.877Z,14.20
2022-09-30T17:56:24.337Z,16.65
2022-09-30T17:58:51.507Z,15.52
2022-09-30T18:01:20.496Z,17.75
2022-09-30T18:03:49.216Z,16.83
2022-09-30T18:06:15.616Z,16.02
2022-09-30T18:08:42.068Z,13.57
2022-09-30T18:11:08.487Z,15.90
2022-09-30T18:13:35.031Z,20.83
2022-09-30T18:16:06.289Z,17.58
2022-09-30T18:18:35.129Z,16.67
2022-09-30T18:21:01.550Z,16.25
2022-09-30T18:23:27.941Z,18.02
2022-09-30T18:25:57.835Z,16.92
2022-09-30T18:28:24.306Z,25.60
2022-09-30T18:30:50.800Z,24.63
2022-09-30T18:33:21.225Z,26.52
2022-09-30T18:35:48.047Z,20.75
2022-09-30T18:38:14.883Z,29.50
2022-09-30T18:40:45.993Z,22.77
2022-09-30T18:43:14.109Z,21.50
2022-09-30T18:45:42.983Z,21.20
2022-09-30T18:48:10.303Z,21.05
2022-09-30T18:50:38.648Z,23.25
2022-09-30T18:53:09.602Z,20.10
2022-09-30T18:55:39.484Z,19.90
2022-09-30T18:58:06.045Z,20.90
2022-09-30T19:00:32.864Z,20.77
2022-09-30T19:02:59.336Z,20.70
2022-09-30T19:05:27.184Z,17.35
2022-09-30T19:07:54.444Z,19.60
2022-09-30T19:10:24.392Z,20.10
2022-09-30T19:12:51.994Z,20.35
2022-09-30T19:15:19.142Z,17.73
2022-09-30T19:17:46.066Z,18.48
2022-09-30T19:20:15.305Z,17.38
2022-09-30T19:22:42.143Z,17.55
2022-09-30T19:25:11.602Z,16.55
2022-09-30T19:27:40.779Z,16.13
2022-09-30T19:30:09.752Z,15.38
2022-09-30T19:32:36.597Z,21.55
2022-09-30T19:35:06.586Z,17.13
2022-09-30T19:37:33.609Z,18.77
2022-09-30T19:40:07.719Z,17.27
2022-09-30T19:42:39.311Z,16.85
2022-09-30T19:45:07.038Z,15.23
2022-09-30T19:47:34.633Z,17.75
2022-09-30T19:50:01.156Z,18.42
2022-09-30T19:52:27.959Z,18.98
2022-09-30T19:54:58.403Z,15.98
2022-09-30T19:57:29.386Z,17.85
2022-09-30T19:59:55.784Z,17.08
2022-09-30T20:02:23.087Z,15.50
2022-09-30T20:04:51.583Z,19.90
2022-09-30T20:07:20.075Z,14.60
2022-09-30T20:09:49.414Z,13.73
2022-09-30T20:12:15.810Z,14.02
2022-09-30T20:15:00.852Z,12.85
2022-09-30T20:17:28.112Z,13.95
2022-09-30T20:20:13.048Z,15.70
2022-09-30T20:22:39.416Z,15.35
2022-09-30T20:25:06.077Z,12.75
2022-09-30T20:27:33.004Z,12.18
2022-09-30T20:29:59.789Z,14.40
2022-09-30T20:32:30.573Z,13.38
2022-09-30T20:34:58.308Z,12.80
2022-09-30T20:37:25.264Z,11.98
2022-09-30T20:39:51.639Z,11.23
2022-09-30T20:42:18.031Z,11.77
2022-09-30T20:44:45.217Z,12.50
2022-09-30T20:47:11.967Z,11.02
2022-09-30T20:49:38.349Z,15.90
2022-09-30T20:52:05.998Z,10.88
2022-09-30T20:54:35.401Z,12.45
2022-09-30T20:57:07.191Z,11.98
2022-09-30T20:59:34.302Z,12.18
2022-09-30T21:02:00.823Z,13.75
2022-09-30T21:04:27.263Z,11.57
2022-09-30T21:06:53.643Z,12.35
2022-09-30T21:09:20.164Z,12.18
2022-09-30T21:11:46.559Z,12.20
2022-09-30T21:14:17.449Z,10.52
2022-09-30T21:16:43.958Z,11.48
2022-09-30T21:19:10.401Z,11.13
2022-09-30T21:21:36.790Z,11.00
2022-09-30T21:24:03.199Z,13.10
2022-09-30T21:26:29.969Z,13.88
2022-09-30T21:28:56.369Z,12.77
2022-09-30T21:31:26.728Z,13.60
2022-09-30T21:33:58.405Z,12.57
2022-09-30T21:36:26.891Z,13.25
2022-09-30T21:38:54.703Z,12.15
2022-09-30T21:41:21.135Z,13.75
2022-09-30T21:43:47.772Z,13.43
2022-09-30T21:46:15.628Z,11.60
2022-09-30T21:48:42.780Z,12.20
2022-09-30T21:51:10.363Z,13.60
2022-09-30T21:53:38.841Z,11.48
2022-09-30T21:56:06.511Z,11.82
2022-09-30T21:58:33.501Z,12.85
2022-09-30T22:01:02.773Z,13.27
2022-09-30T22:03:37.469Z,12.30
2022-09-30T22:06:07.136Z,12.45
2022-09-30T22:08:36.243Z,13.93
2022-09-30T22:11:06.747Z,13.52
2022-09-30T22:13:33.196Z,16.27
2022-09-30T22:16:05.104Z,15.80
2022-09-30T22:18:32.923Z,13.68
2022-09-30T22:21:12.495Z,15.07
2022-09-30T22:23:39.667Z,16.23
2022-09-30T22:26:11.938Z,15.57
2022-09-30T22:28:39.583Z,16.30
2022-09-30T22:31:13.065Z,13.73
2022-09-30T22:33:58.111Z,14.63
2022-09-30T22:36:42.851Z,16.73
2022-09-30T22:39:10.596Z,15.77
2022-09-30T22:41:38.200Z,15.48
2022-09-30T22:44:05.165Z,12.40
2022-09-30T22:46:36.474Z,15.52
2022-09-30T22:49:03.779Z,13.18
2022-09-30T22:51:31.240Z,13.23
2022-09-30T22:54:00.998Z,12.00
2022-09-30T22:56:27.814Z,13.82
2022-09-30T22:58:54.211Z,14.00
2022-09-30T23:01:20.721Z,16.70
2022-09-30T23:03:48.387Z,16.15
2022-09-30T23:06:14.828Z,14.18
2022-09-30T23:08:45.387Z,14.73
2022-09-30T23:11:15.640Z,12.95
2022-09-30T23:13:42.551Z,12.98
2022-09-30T23:16:09.844Z,16.40
2022-09-30T23:18:36.397Z,15.85
2022-09-30T23:21:05.216Z,15.52
2022-09-30T23:23:33.246Z,14.88
2022-09-30T23:26:01.550Z,14.00
2022-09-30T23:28:28.667Z,14.55
2022-09-30T23:30:55.900Z,15.13
2022-09-30T23:33:22.295Z,13.82
2022-09-30T23:35:49.306Z,13.95
2022-09-30T23:38:17.836Z,14.25
2022-09-30T23:40:48.342Z,12.85
2022-09-30T23:43:15.696Z,12.50
2022-09-30T23:45:42.553Z,17.23
2022-09-30T23:48:09.276Z,14.10
2022-09-30T23:50:35.674Z,15.45
2022-09-30T23:53:02.126Z,17.13
2022-09-30T23:55:31.645Z,14.52
2022-09-30T23:57:58.102Z,13.40
